Portada
METAR-TAF:

METAR-TAF

Aeroports :

Canes, França

latitud: 43-33N, longitud: 006-57E, altitud: 3 m

Observació

L'informe es va fer fa 24 minuts, a les 20:30 UTC
Vent 3 kt del Nord
Temperatura 11°C
Humitat 82%
Pressió 1013 hPa
Visibilitat 10 km o més
sense núvols per sota de 1500 mi sense presència de cumulonimbus.

METAR: LFMD 302030Z AUTO 01003KT CAVOK 11/08 Q1013

Hora: 22:54 (20:54 UTC)


TAF: manca

Observacions i pronòstics meteorològics de més de 4000 aeroports (METAR i TAF).

Les estacions disponibles són els punts grocs i vermells al mapa.

Posi el ratolí al punt desitjat per veure el nom de l'estació.

Feu clic per veure les observacions i els pronòstics meteorològics.

Per canviar el mapa: feu clic els botons verds amb una creu de color negre per apropar; al botó verd amb un guió per allunyar la imatge; o en les fletxes verdes per a mapes adjacents.


METAR-TAF: